createdAt,value
2018-09-01T00:00:15.286Z,13.00
2018-09-01T00:02:43.350Z,19.87
2018-09-01T00:05:11.473Z,18.83
2018-09-01T00:07:39.709Z,15.00
2018-09-01T00:10:07.782Z,13.77
2018-09-01T00:12:35.846Z,24.57
2018-09-01T00:15:03.913Z,15.07
2018-09-01T00:17:32.273Z,16.50
2018-09-01T00:20:01.402Z,17.97
2018-09-01T00:22:29.937Z,22.13
2018-09-01T00:24:57.993Z,17.97
2018-09-01T00:27:26.073Z,17.00
2018-09-01T00:29:54.137Z,15.53
2018-09-01T00:32:22.715Z,16.53
2018-09-01T00:34:51.346Z,32.20
2018-09-01T00:37:24.727Z,22.27
2018-09-01T00:39:52.745Z,18.97
2018-09-01T00:42:21.677Z,24.00
2018-09-01T00:44:49.741Z,13.03
2018-09-01T00:47:17.789Z,12.43
2018-09-01T00:49:46.409Z,13.27
2018-09-01T00:52:14.457Z,14.93
2018-09-01T00:54:42.512Z,11.30
2018-09-01T00:57:10.561Z,14.93
2018-09-01T00:59:38.666Z,15.67
2018-09-01T01:02:06.930Z,18.20
2018-09-01T01:04:34.962Z,21.60
2018-09-01T01:07:02.997Z,22.80
2018-09-01T01:09:31.070Z,17.47
2018-09-01T01:11:59.117Z,23.07
2018-09-01T01:14:27.169Z,12.57
2018-09-01T01:16:55.218Z,16.83
2018-09-01T01:19:23.314Z,13.97
2018-09-01T01:21:51.445Z,17.10
2018-09-01T01:24:19.493Z,13.13
2018-09-01T01:26:50.853Z,12.23
2018-09-01T01:29:18.897Z,19.37
2018-09-01T01:31:46.958Z,18.40
2018-09-01T01:34:15.092Z,14.30
2018-09-01T01:36:43.153Z,26.77
2018-09-01T01:39:11.227Z,16.07
2018-09-01T01:41:39.274Z,15.87
2018-09-01T01:44:07.327Z,16.77
2018-09-01T01:46:35.381Z,15.80
2018-09-01T01:49:03.421Z,18.33
2018-09-01T01:51:31.501Z,16.87
2018-09-01T01:53:59.565Z,13.10
2018-09-01T01:56:27.618Z,12.83
2018-09-01T01:58:55.669Z,16.30
2018-09-01T02:01:23.721Z,19.93
2018-09-01T02:03:51.989Z,22.37
2018-09-01T02:06:20.039Z,21.00
2018-09-01T02:08:48.089Z,16.30
2018-09-01T02:11:16.129Z,15.57
2018-09-01T02:13:44.174Z,14.63
2018-09-01T02:16:12.222Z,23.80
2018-09-01T02:18:40.265Z,18.77
2018-09-01T02:21:08.315Z,17.60
2018-09-01T02:23:36.367Z,17.33
2018-09-01T02:26:04.409Z,14.33
2018-09-01T02:28:32.453Z,14.73
2018-09-01T02:31:00.529Z,16.13
2018-09-01T02:33:28.589Z,12.80
2018-09-01T02:35:56.635Z,22.03
2018-09-01T02:38:24.677Z,13.50
2018-09-01T02:40:52.738Z,20.30
2018-09-01T02:43:20.793Z,16.30
2018-09-01T02:45:48.851Z,22.80
2018-09-01T02:48:16.885Z,20.00
2018-09-01T02:50:44.938Z,20.67
2018-09-01T02:53:12.986Z,15.97
2018-09-01T02:55:41.042Z,16.87
2018-09-01T02:58:09.090Z,15.80
2018-09-01T03:00:37.849Z,36.93
2018-09-01T03:03:05.948Z,24.50
2018-09-01T03:05:34.025Z,22.33
2018-09-01T03:08:02.703Z,35.57
2018-09-01T03:10:30.766Z,32.97
2018-09-01T03:12:58.826Z,21.23
2018-09-01T03:15:26.879Z,24.10
2018-09-01T03:17:54.937Z,26.60
2018-09-01T03:20:22.977Z,30.17
2018-09-01T03:22:51.033Z,15.87
2018-09-01T03:25:19.093Z,15.97
2018-09-01T03:27:47.149Z,16.37
2018-09-01T03:30:15.193Z,24.00
2018-09-01T03:32:43.245Z,23.27
2018-09-01T03:35:11.299Z,22.30
2018-09-01T03:37:39.379Z,25.47
2018-09-01T03:40:07.610Z,17.43
2018-09-01T03:42:35.649Z,13.03
2018-09-01T03:45:03.914Z,16.57
2018-09-01T03:47:31.975Z,19.03
2018-09-01T03:50:00.026Z,28.43
2018-09-01T03:52:28.077Z,20.70
2018-09-01T03:54:56.121Z,20.87
2018-09-01T03:57:24.169Z,15.97
2018-09-01T03:59:52.335Z,13.13
2018-09-01T04:02:20.360Z,12.60
2018-09-01T04:04:48.409Z,18.50
2018-09-01T04:07:16.483Z,18.00
2018-09-01T04:09:44.533Z,20.63
2018-09-01T04:12:12.584Z,15.67
2018-09-01T04:14:40.634Z,18.00
2018-09-01T04:17:08.700Z,13.40
2018-09-01T04:19:36.752Z,17.30
2018-09-01T04:22:04.852Z,16.60
2018-09-01T04:24:32.884Z,20.70
2018-09-01T04:27:00.951Z,17.80
2018-09-01T04:29:29.074Z,21.27
2018-09-01T04:31:57.315Z,21.83
2018-09-01T04:34:25.278Z,22.43
2018-09-01T04:36:53.330Z,23.20
2018-09-01T04:39:21.382Z,22.93
2018-09-01T04:41:49.441Z,22.77
2018-09-01T04:44:17.485Z,17.17
2018-09-01T04:46:45.548Z,15.97
2018-09-01T04:49:13.585Z,16.13
2018-09-01T04:51:41.635Z,19.90
2018-09-01T04:54:09.684Z,19.47
2018-09-01T04:56:37.830Z,23.33
2018-09-01T04:59:05.902Z,24.43
2018-09-01T05:01:33.957Z,24.47
2018-09-01T05:04:02.100Z,16.70
2018-09-01T05:06:30.153Z,23.23
2018-09-01T05:08:58.195Z,20.03
2018-09-01T05:11:26.253Z,20.30
2018-09-01T05:13:54.306Z,21.80
2018-09-01T05:16:22.378Z,14.97
2018-09-01T05:18:51.283Z,20.60
2018-09-01T05:21:19.336Z,24.40
2018-09-01T05:23:47.459Z,18.83
2018-09-01T05:26:15.469Z,23.83
2018-09-01T05:28:43.518Z,36.30
2018-09-01T05:31:11.623Z,24.63
2018-09-01T05:33:39.695Z,29.57
2018-09-01T05:36:07.875Z,29.43
2018-09-01T05:38:36.086Z,26.37
2018-09-01T05:41:04.465Z,20.03
2018-09-01T05:43:32.551Z,26.10
2018-09-01T05:46:00.579Z,37.73
2018-09-01T05:48:28.633Z,38.10
2018-09-01T05:50:56.680Z,31.80
2018-09-01T05:53:24.726Z,32.67
2018-09-01T05:55:52.774Z,32.90
2018-09-01T05:58:20.851Z,42.03
2018-09-01T06:00:49.987Z,30.73
2018-09-01T06:03:18.378Z,34.97
2018-09-01T06:05:47.312Z,33.43
2018-09-01T06:08:15.482Z,36.13
2018-09-01T06:10:43.573Z,20.07
2018-09-01T06:13:12.451Z,20.20
2018-09-01T06:15:40.505Z,40.03
2018-09-01T06:18:09.750Z,28.77
2018-09-01T06:20:37.806Z,29.70
2018-09-01T06:23:06.232Z,31.47
2018-09-01T06:25:34.287Z,36.03
2018-09-01T06:28:06.152Z,37.43
2018-09-01T06:30:36.884Z,33.90
2018-09-01T06:33:04.947Z,44.90
2018-09-01T06:35:32.989Z,27.13
2018-09-01T06:38:01.074Z,45.50
2018-09-01T06:40:29.125Z,31.57
2018-09-01T06:42:57.199Z,38.93
2018-09-01T06:45:26.940Z,40.80
2018-09-01T06:47:54.972Z,31.37
2018-09-01T06:50:23.031Z,44.53
2018-09-01T06:52:51.083Z,52.30
2018-09-01T06:55:20.253Z,35.40
2018-09-01T06:57:50.374Z,29.73
2018-09-01T07:00:22.138Z,27.17
2018-09-01T07:02:51.153Z,27.40
2018-09-01T07:05:19.225Z,38.60
2018-09-01T07:07:47.296Z,31.50
2018-09-01T07:10:15.358Z,44.73
2018-09-01T07:12:43.462Z,29.97
2018-09-01T07:15:11.775Z,48.40
2018-09-01T07:17:39.862Z,35.10
2018-09-01T07:20:07.982Z,43.13
2018-09-01T07:22:36.025Z,41.17
2018-09-01T07:25:04.111Z,37.57
2018-09-01T07:27:32.200Z,40.43
2018-09-01T07:30:00.236Z,35.27
2018-09-01T07:32:30.373Z,42.33
2018-09-01T07:34:58.449Z,39.60
2018-09-01T07:37:26.493Z,33.90
2018-09-01T07:39:54.597Z,49.73
2018-09-01T07:42:22.704Z,36.73
2018-09-01T07:44:50.760Z,42.37
2018-09-01T07:47:18.836Z,35.47
2018-09-01T07:49:46.913Z,39.30
2018-09-01T07:52:14.988Z,43.03
2018-09-01T07:54:43.118Z,41.70
2018-09-01T07:57:11.147Z,36.70
2018-09-01T07:59:39.228Z,42.77
2018-09-01T08:02:07.382Z,30.30
2018-09-01T08:04:35.868Z,48.93
2018-09-01T08:07:03.934Z,35.80
2018-09-01T08:09:31.991Z,35.27
2018-09-01T08:12:00.146Z,25.40
2018-09-01T08:14:28.438Z,32.70
2018-09-01T08:16:56.462Z,34.70
2018-09-01T08:19:24.535Z,31.70
2018-09-01T08:21:52.600Z,35.03
2018-09-01T08:24:20.674Z,28.60
2018-09-01T08:26:50.357Z,22.37
2018-09-01T08:29:18.782Z,27.37
2018-09-01T08:31:46.825Z,31.03
2018-09-01T08:34:14.886Z,35.10
2018-09-01T08:36:42.935Z,20.73
2018-09-01T08:39:11.310Z,24.73
2018-09-01T08:41:39.349Z,20.00
2018-09-01T08:44:07.418Z,24.60
2018-09-01T08:46:35.540Z,21.23
2018-09-01T08:49:03.803Z,28.53
2018-09-01T08:51:31.831Z,18.30
2018-09-01T08:54:00.105Z,23.90
2018-09-01T08:56:28.364Z,18.47
2018-09-01T08:58:56.381Z,25.13
2018-09-01T09:01:24.441Z,14.50
2018-09-01T09:03:52.498Z,12.50
2018-09-01T09:06:20.540Z,17.00
2018-09-01T09:08:48.689Z,13.03
2018-09-01T09:11:16.745Z,11.00
2018-09-01T09:13:44.791Z,12.37
2018-09-01T09:16:12.885Z,13.77
2018-09-01T09:18:41.026Z,17.90
2018-09-01T09:21:08.992Z,18.30
2018-09-01T09:23:37.033Z,11.03
2018-09-01T09:26:05.330Z,10.20
2018-09-01T09:28:33.381Z,22.17
2018-09-01T09:31:01.869Z,7.17
2018-09-01T09:33:29.975Z,10.73
2018-09-01T09:35:58.056Z,13.83
2018-09-01T09:38:26.097Z,8.03
2018-09-01T09:40:54.145Z,8.20
2018-09-01T09:43:22.177Z,9.93
2018-09-01T09:45:50.248Z,9.50
2018-09-01T09:48:18.297Z,6.50
2018-09-01T09:50:46.355Z,7.60
2018-09-01T09:53:14.377Z,8.83
2018-09-01T09:55:42.433Z,6.50
2018-09-01T09:58:10.558Z,8.70
2018-09-01T10:00:44.037Z,9.63
2018-09-01T10:03:12.086Z,7.63
2018-09-01T10:05:40.240Z,6.77
2018-09-01T10:08:08.170Z,8.67
2018-09-01T10:10:36.228Z,8.17
2018-09-01T10:13:04.273Z,7.23
2018-09-01T10:15:32.337Z,5.20
2018-09-01T10:18:00.382Z,6.57
2018-09-01T10:20:28.798Z,6.90
2018-09-01T10:22:56.818Z,11.50
2018-09-01T10:25:24.873Z,4.43
2018-09-01T10:27:52.924Z,9.23
2018-09-01T10:30:20.982Z,5.10
2018-09-01T10:32:49.026Z,4.30
2018-09-01T10:35:17.112Z,6.00
2018-09-01T10:37:45.206Z,8.60
2018-09-01T10:40:13.261Z,6.70
2018-09-01T10:42:41.322Z,10.33
2018-09-01T10:45:09.414Z,4.97
2018-09-01T10:47:37.477Z,8.53
2018-09-01T10:50:05.641Z,4.10
2018-09-01T10:52:33.677Z,6.63
2018-09-01T10:55:01.721Z,5.57
2018-09-01T10:57:30.586Z,4.70
2018-09-01T10:59:58.648Z,4.20
2018-09-01T11:02:26.725Z,4.20
2018-09-01T11:04:54.749Z,4.23
2018-09-01T11:07:22.934Z,5.13
2018-09-01T11:09:50.990Z,5.53
2018-09-01T11:12:19.889Z,5.90
2018-09-01T11:14:47.973Z,5.77
2018-09-01T11:17:16.019Z,5.33
2018-09-01T11:19:44.125Z,6.10
2018-09-01T11:22:12.217Z,4.73
2018-09-01T11:24:40.307Z,7.40
2018-09-01T11:27:08.379Z,7.47
2018-09-01T11:29:36.426Z,3.30
2018-09-01T11:32:04.505Z,5.00
2018-09-01T11:34:32.633Z,3.23
2018-09-01T11:37:00.685Z,9.83
2018-09-01T11:39:28.733Z,3.40
2018-09-01T11:41:56.955Z,3.50
2018-09-01T11:44:25.026Z,4.37
2018-09-01T11:46:53.193Z,5.67
2018-09-01T11:49:21.258Z,4.50
2018-09-01T11:51:49.438Z,6.10
2018-09-01T11:54:17.524Z,2.97
2018-09-01T11:56:45.576Z,4.57
2018-09-01T11:59:13.631Z,9.47
2018-09-01T12:01:41.700Z,2.93
2018-09-01T12:04:09.762Z,2.43
2018-09-01T12:06:37.829Z,5.07
2018-09-01T12:09:07.243Z,3.90
2018-09-01T12:11:35.225Z,3.73
2018-09-01T12:14:03.276Z,13.00
2018-09-01T12:16:31.327Z,4.30
2018-09-01T12:18:59.409Z,4.50
2018-09-01T12:21:27.799Z,5.27
2018-09-01T12:23:55.830Z,3.87
2018-09-01T12:26:23.906Z,5.90
2018-09-01T12:28:51.945Z,6.50
2018-09-01T12:31:19.993Z,7.37
2018-09-01T12:33:48.647Z,4.80
2018-09-01T12:36:16.778Z,3.47
2018-09-01T12:38:44.859Z,8.83
2018-09-01T12:41:13.800Z,4.20
2018-09-01T12:43:42.003Z,6.53
2018-09-01T12:46:10.049Z,3.80
2018-09-01T12:48:38.234Z,3.17
2018-09-01T12:51:06.658Z,4.20
2018-09-01T12:53:34.827Z,3.07
2018-09-01T12:56:02.968Z,4.20
2018-09-01T12:58:31.012Z,2.27
2018-09-01T13:00:59.066Z,4.10
2018-09-01T13:03:27.119Z,2.80
2018-09-01T13:05:55.177Z,5.17
2018-09-01T13:08:24.172Z,5.07
2018-09-01T13:10:52.225Z,4.80
2018-09-01T13:13:20.313Z,3.80
2018-09-01T13:15:49.161Z,3.77
2018-09-01T13:18:17.233Z,2.83
2018-09-01T13:20:45.949Z,3.93
2018-09-01T13:23:14.003Z,2.20
2018-09-01T13:25:42.057Z,7.03
2018-09-01T13:28:10.122Z,4.53
2018-09-01T13:30:38.179Z,4.27
2018-09-01T13:33:06.253Z,3.17
2018-09-01T13:35:34.390Z,10.97
2018-09-01T13:38:02.478Z,4.83
2018-09-01T13:40:30.553Z,3.10
2018-09-01T13:42:58.602Z,5.13
2018-09-01T13:45:26.670Z,3.00
2018-09-01T13:47:54.709Z,3.50
2018-09-01T13:50:22.765Z,3.30
2018-09-01T13:52:50.859Z,3.70
2018-09-01T13:55:18.882Z,7.17
2018-09-01T13:57:47.432Z,3.53
2018-09-01T14:00:15.477Z,5.10
2018-09-01T14:02:43.643Z,7.80
2018-09-01T14:05:12.012Z,2.57
2018-09-01T14:07:40.071Z,2.40
2018-09-01T14:10:08.177Z,3.07
2018-09-01T14:12:36.345Z,2.73
2018-09-01T14:15:04.465Z,3.90
2018-09-01T14:17:33.354Z,9.23
2018-09-01T14:20:01.442Z,5.50
2018-09-01T14:22:30.611Z,6.73
2018-09-01T14:24:58.650Z,5.73
2018-09-01T14:27:26.713Z,3.90
2018-09-01T14:29:54.757Z,3.27
2018-09-01T14:32:22.853Z,5.07
2018-09-01T14:34:50.895Z,7.90
2018-09-01T14:37:18.994Z,6.20
2018-09-01T14:39:46.975Z,6.90
2018-09-01T14:42:15.017Z,4.03
2018-09-01T14:44:43.093Z,3.70
2018-09-01T14:47:11.296Z,2.47
2018-09-01T14:49:39.300Z,2.90
2018-09-01T14:52:07.368Z,5.60
2018-09-01T14:54:35.413Z,3.53
2018-09-01T14:57:03.595Z,4.27
2018-09-01T14:59:31.665Z,5.40
2018-09-01T15:01:59.718Z,6.20
2018-09-01T15:04:27.782Z,2.87
2018-09-01T15:06:55.844Z,3.50
2018-09-01T15:09:23.921Z,3.40
2018-09-01T15:11:51.962Z,7.63
2018-09-01T15:14:20.018Z,5.53
2018-09-01T15:16:48.065Z,12.60
2018-09-01T15:19:16.116Z,12.57
2018-09-01T15:21:44.166Z,3.33
2018-09-01T15:24:12.883Z,5.80
2018-09-01T15:26:40.931Z,2.90
2018-09-01T15:29:08.969Z,3.70
2018-09-01T15:31:37.190Z,4.50
2018-09-01T15:34:05.245Z,3.90
2018-09-01T15:36:33.377Z,4.70
2018-09-01T15:39:01.451Z,4.73
2018-09-01T15:41:29.478Z,6.10
2018-09-01T15:43:57.585Z,6.37
2018-09-01T15:46:25.634Z,4.87
2018-09-01T15:48:53.694Z,4.50
2018-09-01T15:51:21.788Z,3.00
2018-09-01T15:53:49.895Z,3.20
2018-09-01T15:56:17.967Z,5.93
2018-09-01T15:58:45.998Z,5.70
2018-09-01T16:01:14.055Z,6.73
2018-09-01T16:03:42.162Z,11.00
2018-09-01T16:06:10.198Z,4.60
2018-09-01T16:08:38.279Z,6.47
2018-09-01T16:11:06.642Z,20.73
2018-09-01T16:13:34.690Z,3.40
2018-09-01T16:16:02.753Z,3.40
2018-09-01T16:18:30.797Z,3.40
2018-09-01T16:20:58.856Z,5.90
2018-09-01T16:23:27.118Z,3.70
2018-09-01T16:25:55.163Z,4.30
2018-09-01T16:28:23.235Z,10.83
2018-09-01T16:30:51.353Z,4.30
2018-09-01T16:33:19.407Z,6.73
2018-09-01T16:35:48.499Z,19.50
2018-09-01T16:38:16.569Z,4.27
2018-09-01T16:40:44.622Z,5.47
2018-09-01T16:43:12.670Z,6.07
2018-09-01T16:45:40.725Z,3.87
2018-09-01T16:48:08.768Z,8.73
2018-09-01T16:50:36.806Z,6.67
2018-09-01T16:53:04.889Z,9.13
2018-09-01T16:55:33.101Z,7.03
2018-09-01T16:58:01.169Z,5.13
2018-09-01T17:00:29.400Z,6.67
2018-09-01T17:02:57.385Z,3.73
2018-09-01T17:05:25.454Z,4.20
2018-09-01T17:07:53.537Z,9.90
2018-09-01T17:10:21.608Z,5.60
2018-09-01T17:12:49.726Z,6.03
2018-09-01T17:15:19.013Z,3.90
2018-09-01T17:17:47.382Z,4.27
2018-09-01T17:20:15.441Z,8.33
2018-09-01T17:22:43.508Z,7.80
2018-09-01T17:25:11.586Z,8.13
2018-09-01T17:27:39.668Z,6.00
2018-09-01T17:30:07.822Z,7.07
2018-09-01T17:32:35.869Z,7.90
2018-09-01T17:35:03.922Z,6.60
2018-09-01T17:37:31.989Z,3.50
2018-09-01T17:40:00.142Z,5.90
2018-09-01T17:42:28.239Z,4.63
2018-09-01T17:44:56.310Z,14.13
2018-09-01T17:47:24.938Z,6.77
2018-09-01T17:49:52.988Z,11.80
2018-09-01T17:52:21.048Z,3.93
2018-09-01T17:54:49.411Z,4.90
2018-09-01T17:57:17.450Z,7.10
2018-09-01T17:59:45.532Z,6.43
2018-09-01T18:02:13.942Z,7.00
2018-09-01T18:04:41.934Z,8.90
2018-09-01T18:07:10.057Z,5.03
2018-09-01T18:09:38.113Z,7.17
2018-09-01T18:12:06.329Z,9.20
2018-09-01T18:14:34.376Z,4.30
2018-09-01T18:17:02.498Z,5.73
2018-09-01T18:19:30.558Z,5.87
2018-09-01T18:21:58.646Z,7.40
2018-09-01T18:24:26.673Z,11.50
2018-09-01T18:26:54.730Z,11.30
2018-09-01T18:29:22.792Z,7.07
2018-09-01T18:31:50.846Z,13.20
2018-09-01T18:34:19.328Z,10.13
2018-09-01T18:36:48.196Z,10.87
2018-09-01T18:39:16.307Z,7.67
2018-09-01T18:41:44.407Z,5.27
2018-09-01T18:44:12.459Z,9.30
2018-09-01T18:46:40.505Z,4.50
2018-09-01T18:49:08.562Z,13.53
2018-09-01T18:51:37.251Z,5.30
2018-09-01T18:54:05.573Z,5.90
2018-09-01T18:56:33.633Z,6.73
2018-09-01T18:59:01.698Z,6.20
2018-09-01T19:01:29.758Z,5.70
2018-09-01T19:03:57.802Z,6.37
2018-09-01T19:06:26.623Z,6.47
2018-09-01T19:08:54.678Z,12.20
2018-09-01T19:11:22.753Z,13.27
2018-09-01T19:13:50.948Z,31.07
2018-09-01T19:16:18.886Z,24.40
2018-09-01T19:18:46.951Z,18.43
2018-09-01T19:21:15.115Z,15.97
2018-09-01T19:23:43.115Z,8.40
2018-09-01T19:26:11.189Z,13.43
2018-09-01T19:28:39.254Z,12.93
2018-09-01T19:31:07.321Z,6.67
2018-09-01T19:33:35.480Z,10.10
2018-09-01T19:36:03.595Z,10.17
2018-09-01T19:38:31.653Z,11.30
2018-09-01T19:40:59.701Z,7.70
2018-09-01T19:43:27.794Z,5.97
2018-09-01T19:45:55.863Z,9.33
2018-09-01T19:48:23.917Z,6.13
2018-09-01T19:50:52.001Z,7.00
2018-09-01T19:53:26.862Z,6.53
2018-09-01T19:55:54.922Z,9.13
2018-09-01T19:58:23.038Z,12.43
2018-09-01T20:00:51.127Z,7.57
2018-09-01T20:03:20.249Z,5.67
2018-09-01T20:05:49.650Z,5.53
2018-09-01T20:08:17.732Z,5.63
2018-09-01T20:10:45.830Z,6.97
2018-09-01T20:13:13.901Z,12.63
2018-09-01T20:15:42.198Z,10.50
2018-09-01T20:18:10.305Z,11.70
2018-09-01T20:20:38.376Z,8.00
2018-09-01T20:23:06.429Z,6.40
2018-09-01T20:25:34.515Z,9.77
2018-09-01T20:28:02.570Z,10.40
2018-09-01T20:30:30.639Z,7.20
2018-09-01T20:32:58.707Z,8.20
2018-09-01T20:35:32.273Z,8.13
2018-09-01T20:38:00.420Z,7.10
2018-09-01T20:40:28.522Z,23.33
2018-09-01T20:42:56.590Z,8.10
2018-09-01T20:45:24.638Z,11.53
2018-09-01T20:47:53.402Z,13.57
2018-09-01T20:50:21.445Z,10.13
2018-09-01T20:52:49.574Z,6.27
2018-09-01T20:55:17.672Z,11.90
2018-09-01T20:57:45.779Z,7.40
2018-09-01T21:00:13.814Z,10.37
2018-09-01T21:02:41.889Z,9.90
2018-09-01T21:05:09.942Z,10.33
2018-09-01T21:07:38.158Z,9.27
2018-09-01T21:10:06.219Z,8.00
2018-09-01T21:12:34.319Z,16.43
2018-09-01T21:15:02.378Z,9.50
2018-09-01T21:17:30.554Z,11.83
2018-09-01T21:19:58.609Z,5.87
2018-09-01T21:22:26.668Z,7.10
2018-09-01T21:24:55.041Z,8.40
2018-09-01T21:27:23.091Z,9.23
2018-09-01T21:29:51.154Z,10.10
2018-09-01T21:32:19.199Z,8.03
2018-09-01T21:34:47.229Z,11.23
2018-09-01T21:37:15.297Z,15.30
2018-09-01T21:39:43.370Z,10.70
2018-09-01T21:42:11.398Z,8.40
2018-09-01T21:44:39.471Z,6.30
2018-09-01T21:47:07.526Z,6.60
2018-09-01T21:49:35.599Z,12.43
2018-09-01T21:52:03.641Z,15.73
2018-09-01T21:54:31.737Z,12.20
2018-09-01T21:56:59.872Z,7.90
2018-09-01T21:59:28.409Z,9.53
2018-09-01T22:02:01.953Z,11.93
2018-09-01T22:04:35.729Z,12.33
2018-09-01T22:07:03.781Z,9.23
2018-09-01T22:09:31.931Z,18.93
2018-09-01T22:11:59.974Z,12.13
2018-09-01T22:14:28.033Z,12.90
2018-09-01T22:16:56.088Z,9.10
2018-09-01T22:19:24.135Z,10.47
2018-09-01T22:21:52.177Z,9.47
2018-09-01T22:24:20.242Z,12.80
2018-09-01T22:26:48.364Z,9.30
2018-09-01T22:29:16.425Z,9.60
2018-09-01T22:31:44.503Z,11.73
2018-09-01T22:34:12.634Z,9.87
2018-09-01T22:36:40.681Z,11.17
2018-09-01T22:39:08.746Z,13.20
2018-09-01T22:41:36.795Z,14.90
2018-09-01T22:44:04.859Z,12.70
2018-09-01T22:46:32.933Z,9.13
2018-09-01T22:49:01.009Z,11.17
2018-09-01T22:51:29.055Z,12.53
2018-09-01T22:53:57.137Z,9.07
2018-09-01T22:56:25.210Z,10.17
2018-09-01T22:58:53.313Z,18.83
2018-09-01T23:01:21.366Z,11.93
2018-09-01T23:03:49.437Z,10.33
2018-09-01T23:06:17.485Z,15.37
2018-09-01T23:08:45.553Z,9.80
2018-09-01T23:11:13.689Z,11.90
2018-09-01T23:13:41.754Z,11.40
2018-09-01T23:16:09.855Z,12.67
2018-09-01T23:18:37.911Z,10.60
2018-09-01T23:21:06.118Z,12.17
2018-09-01T23:23:34.437Z,9.90
2018-09-01T23:26:02.473Z,12.70
2018-09-01T23:28:30.554Z,11.40
2018-09-01T23:30:58.620Z,13.27
2018-09-01T23:33:26.717Z,9.37
2018-09-01T23:35:55.228Z,9.90
2018-09-01T23:38:23.302Z,10.87
2018-09-01T23:40:51.361Z,11.90
2018-09-01T23:43:19.418Z,10.47
2018-09-01T23:45:47.483Z,11.70
2018-09-01T23:48:15.526Z,11.27
2018-09-01T23:50:43.583Z,10.90
2018-09-01T23:53:11.649Z,12.00
2018-09-01T23:55:39.708Z,10.33
2018-09-01T23:58:07.772Z,14.20
